createdAt,value
2023-04-16T00:00:42.211Z,5.40
2023-04-16T00:03:29.001Z,5.42
2023-04-16T00:05:55.506Z,5.41
2023-04-16T00:08:22.492Z,5.30
2023-04-16T00:10:48.769Z,5.21
2023-04-16T00:13:15.074Z,5.15
2023-04-16T00:15:41.305Z,5.10
2023-04-16T00:18:07.552Z,5.05
2023-04-16T00:20:33.841Z,5.08
2023-04-16T00:23:00.117Z,5.11
2023-04-16T00:25:26.570Z,5.16
2023-04-16T00:27:52.963Z,5.20
2023-04-16T00:30:19.226Z,5.22
2023-04-16T00:32:45.637Z,5.24
2023-04-16T00:35:12.019Z,5.25
2023-04-16T00:37:38.483Z,5.19
2023-04-16T00:40:05.118Z,5.08
2023-04-16T00:42:31.420Z,4.99
2023-04-16T00:44:57.641Z,4.94
2023-04-16T00:47:24.009Z,4.92
2023-04-16T00:49:50.267Z,4.89
2023-04-16T00:52:16.598Z,4.87
2023-04-16T00:54:42.949Z,4.86
2023-04-16T00:57:09.494Z,4.84
2023-04-16T00:59:35.884Z,4.83
2023-04-16T01:02:02.311Z,4.80
2023-04-16T01:04:29.406Z,4.69
2023-04-16T01:06:56.058Z,4.55
2023-04-16T01:09:22.296Z,4.42
2023-04-16T01:11:48.599Z,4.32
2023-04-16T01:14:14.919Z,4.24
2023-04-16T01:16:41.228Z,4.17
2023-04-16T01:19:08.019Z,4.13
2023-04-16T01:21:34.501Z,4.13
2023-04-16T01:24:04.158Z,4.13
2023-04-16T01:26:30.741Z,4.16
2023-04-16T01:28:58.063Z,4.22
2023-04-16T01:31:24.479Z,4.27
2023-04-16T01:34:18.740Z,4.29
2023-04-16T01:36:45.092Z,4.28
2023-04-16T01:39:11.530Z,4.30
2023-04-16T01:41:37.939Z,4.30
2023-04-16T01:44:04.226Z,4.31
2023-04-16T01:46:31.777Z,4.33
2023-04-16T01:48:58.599Z,4.36
2023-04-16T01:51:25.178Z,4.39
2023-04-16T01:53:51.384Z,4.44
2023-04-16T01:56:18.051Z,4.51
2023-04-16T01:58:44.665Z,4.55
2023-04-16T02:01:12.952Z,4.57
2023-04-16T02:03:40.023Z,4.58
2023-04-16T02:06:06.768Z,4.58
2023-04-16T02:08:33.896Z,4.58
2023-04-16T02:11:00.220Z,4.59
2023-04-16T02:13:26.582Z,4.62
2023-04-16T02:15:52.905Z,4.64
2023-04-16T02:18:45.180Z,4.70
2023-04-16T02:21:12.807Z,4.78
2023-04-16T02:23:39.373Z,4.86
2023-04-16T02:26:05.672Z,4.93
2023-04-16T02:28:32.367Z,5.00
2023-04-16T02:30:59.153Z,5.03
2023-04-16T02:33:25.974Z,5.03
2023-04-16T02:35:56.801Z,5.00
2023-04-16T02:38:23.101Z,4.91
2023-04-16T02:40:49.495Z,4.84
2023-04-16T02:43:15.921Z,4.79
2023-04-16T02:45:42.186Z,4.75
2023-04-16T02:48:08.455Z,4.69
2023-04-16T02:50:34.809Z,4.66
2023-04-16T02:53:01.132Z,4.65
2023-04-16T02:55:27.648Z,4.65
2023-04-16T02:57:54.008Z,4.66
2023-04-16T03:00:20.375Z,4.66
2023-04-16T03:02:46.869Z,4.66
2023-04-16T03:05:13.148Z,4.65
2023-04-16T03:07:39.462Z,4.59
2023-04-16T03:10:06.454Z,4.56
2023-04-16T03:12:32.694Z,4.56
2023-04-16T03:14:59.081Z,4.55
2023-04-16T03:17:25.861Z,4.57
2023-04-16T03:19:52.128Z,4.58
2023-04-16T03:22:19.094Z,4.58
2023-04-16T03:24:46.028Z,4.57
2023-04-16T03:27:12.290Z,4.57
2023-04-16T03:29:38.634Z,4.55
2023-04-16T03:32:05.365Z,4.52
2023-04-16T03:34:31.751Z,4.48
2023-04-16T03:36:57.994Z,4.50
2023-04-16T03:39:24.543Z,4.47
2023-04-16T03:41:51.349Z,4.44
2023-04-16T03:44:17.887Z,4.42
2023-04-16T03:46:44.831Z,4.41
2023-04-16T03:49:11.449Z,4.43
2023-04-16T03:51:38.114Z,4.42
2023-04-16T03:54:04.611Z,4.46
2023-04-16T03:56:32.800Z,4.50
2023-04-16T03:58:59.050Z,4.51
2023-04-16T04:01:25.535Z,4.50
2023-04-16T04:03:52.124Z,4.49
2023-04-16T04:06:18.676Z,4.45
2023-04-16T04:08:44.974Z,4.41
2023-04-16T04:11:13.008Z,4.39
2023-04-16T04:13:41.489Z,4.42
2023-04-16T04:16:07.972Z,4.46
2023-04-16T04:18:34.365Z,4.46
2023-04-16T04:21:05.333Z,4.50
2023-04-16T04:23:33.378Z,4.53
2023-04-16T04:25:59.728Z,4.55
2023-04-16T04:28:26.131Z,4.60
2023-04-16T04:30:52.460Z,4.67
2023-04-16T04:33:19.228Z,4.71
2023-04-16T04:35:46.902Z,4.75
2023-04-16T04:38:16.109Z,4.83
2023-04-16T04:40:42.774Z,4.91
2023-04-16T04:43:09.178Z,4.98
2023-04-16T04:45:35.730Z,5.01
2023-04-16T04:48:04.458Z,5.03
2023-04-16T04:50:30.929Z,5.03
2023-04-16T04:52:57.468Z,5.05
2023-04-16T04:55:23.734Z,5.10
2023-04-16T04:57:50.101Z,5.13
2023-04-16T05:00:16.670Z,5.13
2023-04-16T05:02:53.843Z,5.12
2023-04-16T05:05:20.498Z,5.11
2023-04-16T05:07:47.304Z,5.11
2023-04-16T05:10:13.711Z,5.13
2023-04-16T05:12:40.157Z,5.17
2023-04-16T05:15:06.672Z,5.22
2023-04-16T05:17:32.964Z,5.29
2023-04-16T05:19:59.853Z,5.37
2023-04-16T05:22:26.213Z,5.44
2023-04-16T05:24:52.542Z,5.51
2023-04-16T05:27:18.810Z,5.58
2023-04-16T05:29:45.088Z,5.65
2023-04-16T05:32:11.545Z,5.74
2023-04-16T05:34:37.887Z,5.80
2023-04-16T05:37:04.167Z,5.87
2023-04-16T05:39:30.475Z,5.92
2023-04-16T05:41:56.793Z,5.94
2023-04-16T05:44:23.076Z,6.01
2023-04-16T05:46:49.385Z,6.07
2023-04-16T05:49:16.416Z,6.12
2023-04-16T05:51:42.662Z,6.17
2023-04-16T05:54:08.963Z,6.25
2023-04-16T05:56:35.210Z,6.36
2023-04-16T05:59:01.421Z,6.43
2023-04-16T06:01:27.705Z,6.50
2023-04-16T06:03:54.153Z,6.60
2023-04-16T06:06:20.563Z,6.71
2023-04-16T06:08:46.884Z,6.79
2023-04-16T06:11:13.186Z,6.87
2023-04-16T06:13:39.550Z,6.93
2023-04-16T06:16:06.172Z,6.96
2023-04-16T06:18:32.664Z,6.97
2023-04-16T06:20:59.026Z,6.99
2023-04-16T06:23:25.406Z,7.02
2023-04-16T06:25:52.005Z,7.09
2023-04-16T06:28:18.259Z,7.17
2023-04-16T06:30:45.719Z,7.25
2023-04-16T06:33:12.110Z,7.35
2023-04-16T06:35:41.377Z,7.44
2023-04-16T06:38:09.836Z,7.54
2023-04-16T06:40:36.205Z,7.61
2023-04-16T06:43:02.685Z,7.77
2023-04-16T06:45:28.943Z,7.93
2023-04-16T06:47:55.361Z,8.16
2023-04-16T06:50:21.819Z,8.37
2023-04-16T06:52:48.303Z,8.51
2023-04-16T06:55:15.483Z,8.64
2023-04-16T06:58:08.559Z,8.76
2023-04-16T07:00:35.181Z,8.86
2023-04-16T07:03:03.714Z,8.87
2023-04-16T07:05:30.632Z,8.91
2023-04-16T07:07:58.248Z,8.97
2023-04-16T07:10:28.142Z,9.07
2023-04-16T07:12:56.523Z,9.16
2023-04-16T07:15:22.970Z,9.26
2023-04-16T07:17:49.333Z,9.32
2023-04-16T07:20:15.947Z,9.41
2023-04-16T07:22:42.265Z,9.46
2023-04-16T07:31:26.207Z,9.78
2023-04-16T07:33:52.673Z,9.98
2023-04-16T07:36:19.203Z,10.15
2023-04-16T07:38:45.740Z,10.29
2023-04-16T07:41:12.459Z,10.45
2023-04-16T07:43:38.847Z,10.47
2023-04-16T07:46:05.713Z,10.57
2023-04-16T07:48:32.284Z,10.64
2023-04-16T07:50:58.645Z,10.72
2023-04-16T07:53:50.783Z,10.81
2023-04-16T07:56:21.407Z,11.09
2023-04-16T09:04:55.007Z,11.73
2023-04-16T09:07:22.903Z,11.85
2023-04-16T09:09:51.099Z,12.02
2023-04-16T09:12:17.687Z,12.21
2023-04-16T09:14:48.650Z,12.41
2023-04-16T09:17:18.207Z,12.58
2023-04-16T09:19:45.393Z,12.70
2023-04-16T09:22:12.205Z,12.79
2023-04-16T09:24:38.775Z,12.76
2023-04-16T09:27:05.265Z,12.77
2023-04-16T09:29:41.526Z,12.80
2023-04-16T09:32:08.734Z,12.91
2023-04-16T09:34:52.855Z,13.12
2023-04-16T09:37:19.658Z,13.47
2023-04-16T09:39:52.778Z,13.78
2023-04-16T09:42:30.095Z,14.06
2023-04-16T09:44:59.453Z,14.38
2023-04-16T09:47:38.133Z,14.70
2023-04-16T09:50:04.702Z,14.88
2023-04-16T09:52:31.245Z,14.94
2023-04-16T09:54:59.357Z,15.21
2023-04-16T09:57:25.677Z,15.64
2023-04-16T10:00:00.707Z,16.12
2023-04-16T10:02:27.552Z,16.59
2023-04-16T10:04:54.717Z,16.67
2023-04-16T10:07:21.452Z,17.25
2023-04-16T10:09:48.134Z,18.09
2023-04-16T10:12:15.114Z,18.48
2023-04-16T10:14:41.900Z,18.08
2023-04-16T10:17:08.737Z,17.58
2023-04-16T10:19:35.827Z,17.19
2023-04-16T10:22:02.480Z,16.84
2023-04-16T10:24:29.522Z,16.70
2023-04-16T10:26:56.349Z,16.44
2023-04-16T10:29:23.661Z,16.03
2023-04-16T10:31:50.572Z,15.48
2023-04-16T10:34:17.753Z,15.12
2023-04-16T10:36:47.340Z,15.08
2023-04-16T10:39:17.474Z,15.43
2023-04-16T10:41:44.010Z,16.54
2023-04-16T10:44:10.357Z,17.12
2023-04-16T10:46:38.204Z,16.95
2023-04-16T10:49:22.710Z,16.70
2023-04-16T10:51:52.776Z,16.40
2023-04-16T10:54:21.029Z,16.10
2023-04-16T10:56:47.338Z,15.94
2023-04-16T10:59:17.244Z,16.00
2023-04-16T11:01:44.653Z,16.86
2023-04-16T11:04:20.703Z,18.03
2023-04-16T11:07:00.114Z,19.12
2023-04-16T11:09:45.019Z,19.10
2023-04-16T11:12:12.432Z,19.82
2023-04-16T11:14:39.961Z,21.16
2023-04-16T11:17:06.402Z,21.60
2023-04-16T11:19:34.867Z,20.75
2023-04-16T11:22:01.860Z,20.04
2023-04-16T11:24:31.863Z,19.49
2023-04-16T11:26:58.439Z,19.07
2023-04-16T11:29:24.752Z,18.72
2023-04-16T11:31:51.788Z,18.48
2023-04-16T11:34:18.520Z,18.35
2023-04-16T11:36:45.658Z,18.45
2023-04-16T11:39:12.459Z,20.13
2023-04-16T11:41:45.687Z,21.80
2023-04-16T11:44:19.066Z,22.37
2023-04-16T11:46:45.504Z,22.98
2023-04-16T11:49:12.138Z,23.96
2023-04-16T11:51:42.425Z,25.05
2023-04-16T11:54:11.849Z,24.36
2023-04-16T11:56:44.894Z,23.34
2023-04-16T11:59:15.793Z,22.47
2023-04-16T12:01:44.759Z,21.64
2023-04-16T12:04:16.221Z,21.16
2023-04-16T12:07:01.678Z,21.01
2023-04-16T12:09:29.694Z,21.84
2023-04-16T12:11:56.144Z,21.22
2023-04-16T12:14:22.584Z,20.45
2023-04-16T12:16:51.462Z,19.60
2023-04-16T12:19:18.392Z,18.88
2023-04-16T12:21:45.885Z,18.31
2023-04-16T12:24:13.136Z,17.74
2023-04-16T12:26:40.686Z,17.26
2023-04-16T12:29:14.018Z,16.85
2023-04-16T12:31:40.323Z,16.47
2023-04-16T12:34:06.675Z,16.22
2023-04-16T12:36:33.017Z,16.04
2023-04-16T12:38:59.354Z,15.96
2023-04-16T12:41:25.714Z,15.87
2023-04-16T12:43:52.144Z,15.82
2023-04-16T12:46:18.619Z,15.87
2023-04-16T12:48:45.213Z,15.91
2023-04-16T12:51:11.634Z,16.05
2023-04-16T12:53:37.968Z,16.62
2023-04-16T12:56:04.460Z,18.97
2023-04-16T12:58:30.743Z,21.52
2023-04-16T13:00:57.005Z,23.82
2023-04-16T13:03:23.412Z,25.64
2023-04-16T13:05:49.955Z,27.04
2023-04-16T13:08:16.323Z,26.39
2023-04-16T13:10:42.634Z,25.25
2023-04-16T13:13:09.011Z,25.82
2023-04-16T13:15:35.403Z,26.44
2023-04-16T13:18:01.922Z,24.97
2023-04-16T13:20:28.349Z,23.45
2023-04-16T13:22:54.879Z,22.30
2023-04-16T13:25:21.216Z,21.32
2023-04-16T13:27:47.537Z,20.55
2023-04-16T13:30:13.940Z,19.97
2023-04-16T13:32:40.427Z,19.51
2023-04-16T13:35:06.966Z,19.16
2023-04-16T13:37:33.880Z,18.85
2023-04-16T13:40:00.170Z,18.52
2023-04-16T13:42:26.472Z,18.29
2023-04-16T13:44:52.792Z,18.17
2023-04-16T13:47:19.281Z,18.15
2023-04-16T13:49:45.720Z,18.30
2023-04-16T13:52:14.167Z,19.90
2023-04-16T13:54:40.590Z,22.40
2023-04-16T13:57:06.902Z,24.38
2023-04-16T13:59:33.276Z,25.93
2023-04-16T14:01:59.642Z,27.17
2023-04-16T14:04:26.183Z,27.89
2023-04-16T14:06:52.766Z,26.94
2023-04-16T14:09:19.077Z,25.49
2023-04-16T14:11:45.462Z,24.13
2023-04-16T14:14:11.784Z,23.21
2023-04-16T14:16:38.141Z,22.87
2023-04-16T14:19:04.647Z,22.78
2023-04-16T14:21:31.101Z,22.20
2023-04-16T14:23:57.384Z,21.69
2023-04-16T14:26:23.742Z,21.18
2023-04-16T14:28:50.087Z,20.59
2023-04-16T14:31:16.381Z,20.03
2023-04-16T14:33:43.447Z,19.54
2023-04-16T14:36:09.876Z,19.11
2023-04-16T14:38:50.936Z,18.70
2023-04-16T14:41:17.323Z,18.46
2023-04-16T14:43:43.637Z,18.25
2023-04-16T14:46:10.290Z,17.91
2023-04-16T14:48:37.263Z,17.69
2023-04-16T14:51:03.641Z,17.48
2023-04-16T14:53:30.423Z,17.29
2023-04-16T14:55:56.828Z,17.07
2023-04-16T14:58:23.175Z,16.89
2023-04-16T15:00:49.426Z,16.73
2023-04-16T15:03:16.260Z,16.57
2023-04-16T15:05:42.687Z,16.44
2023-04-16T15:08:09.065Z,16.33
2023-04-16T15:10:35.477Z,16.26
2023-04-16T15:13:01.814Z,16.20
2023-04-16T15:15:28.241Z,16.13
2023-04-16T15:17:54.690Z,16.12
2023-04-16T15:20:21.063Z,16.21
2023-04-16T15:22:47.645Z,16.38
2023-04-16T15:25:14.005Z,16.37
2023-04-16T15:27:40.341Z,16.34
2023-04-16T15:30:34.878Z,16.31
2023-04-16T15:33:01.464Z,16.29
2023-04-16T15:35:27.977Z,16.28
2023-04-16T15:37:54.543Z,16.26
2023-04-16T15:40:22.353Z,16.24
2023-04-16T15:42:48.826Z,16.28
2023-04-16T15:45:15.455Z,16.29
2023-04-16T15:47:43.203Z,16.26
2023-04-16T15:50:09.782Z,16.22
2023-04-16T15:52:36.449Z,16.12
2023-04-16T15:55:04.320Z,15.98
2023-04-16T15:57:31.129Z,15.87
2023-04-16T16:00:06.345Z,15.77
2023-04-16T16:02:33.857Z,15.74
2023-04-16T16:05:00.611Z,15.79
2023-04-16T16:07:27.318Z,15.86
2023-04-16T16:09:53.957Z,15.88
2023-04-16T16:12:23.669Z,15.88
2023-04-16T16:14:50.218Z,15.92
2023-04-16T16:17:17.507Z,15.95
2023-04-16T16:20:12.183Z,15.93
2023-04-16T16:22:39.368Z,15.86
2023-04-16T16:25:06.275Z,15.81
2023-04-16T16:27:33.038Z,15.76
2023-04-16T16:29:59.652Z,15.78
2023-04-16T16:32:26.343Z,15.76
2023-04-16T16:34:53.033Z,15.72
2023-04-16T16:37:19.440Z,15.72
2023-04-16T16:39:46.073Z,15.67
2023-04-16T16:42:12.624Z,15.59
2023-04-16T16:44:40.101Z,15.45
2023-04-16T16:47:06.806Z,15.32
2023-04-16T16:49:33.258Z,15.17
2023-04-16T16:51:59.753Z,15.08
2023-04-16T16:54:28.412Z,14.99
2023-04-16T16:57:20.110Z,14.88
2023-04-16T16:59:47.183Z,14.68
2023-04-16T17:02:16.351Z,14.56
2023-04-16T17:04:43.832Z,14.42
2023-04-16T17:07:10.883Z,14.30
2023-04-16T17:09:37.346Z,14.17
2023-04-16T17:12:05.321Z,14.04
2023-04-16T17:14:56.956Z,13.91
2023-04-16T17:17:24.211Z,13.77
2023-04-16T17:19:50.571Z,13.65
2023-04-16T17:22:16.956Z,13.50
2023-04-16T17:24:46.015Z,13.39
2023-04-16T17:27:15.633Z,13.28
2023-04-16T17:29:42.117Z,13.20
2023-04-16T17:32:08.659Z,13.09
2023-04-16T17:34:35.647Z,12.99
2023-04-16T17:37:02.182Z,12.88
2023-04-16T17:39:29.010Z,12.76
2023-04-16T17:41:55.685Z,12.65
2023-04-16T17:44:22.128Z,12.54
2023-04-16T17:47:13.795Z,12.45
2023-04-16T17:49:40.964Z,12.35
2023-04-16T17:52:11.204Z,12.25
2023-04-16T17:54:39.370Z,12.15
2023-04-16T17:57:09.550Z,12.07
2023-04-16T17:59:36.038Z,12.00
2023-04-16T18:02:05.554Z,11.92
2023-04-16T18:04:33.247Z,11.85
2023-04-16T18:06:59.701Z,11.80
2023-04-16T18:09:26.243Z,11.73
2023-04-16T18:12:06.232Z,11.67
2023-04-16T18:14:37.187Z,11.62
2023-04-16T18:17:06.322Z,11.55
2023-04-16T18:19:40.697Z,11.51
2023-04-16T18:22:07.524Z,11.45
2023-04-16T18:24:36.989Z,11.39
2023-04-16T18:27:04.144Z,11.33
2023-04-16T18:29:33.939Z,11.27
2023-04-16T18:32:09.872Z,11.20
2023-04-16T18:34:38.962Z,11.11
2023-04-16T18:37:05.639Z,11.04
2023-04-16T18:39:32.513Z,10.96
2023-04-16T18:41:59.235Z,10.89
2023-04-16T18:44:26.732Z,10.83
2023-04-16T18:46:53.365Z,10.77
2023-04-16T18:49:21.205Z,10.72
2023-04-16T18:51:47.747Z,10.67
2023-04-16T18:54:20.495Z,10.62
2023-04-16T18:56:47.102Z,10.56
2023-04-16T18:59:13.879Z,10.50
2023-04-16T19:01:40.367Z,10.44
2023-04-16T19:04:07.101Z,10.39
2023-04-16T19:06:36.310Z,10.31
2023-04-16T19:09:02.899Z,10.24
2023-04-16T19:11:29.525Z,10.17
2023-04-16T19:13:56.165Z,10.12
2023-04-16T19:16:22.949Z,10.07
2023-04-16T19:18:49.522Z,10.04
2023-04-16T19:21:17.358Z,10.01
2023-04-16T19:23:43.870Z,9.96
2023-04-16T19:26:10.478Z,9.91
2023-04-16T19:28:36.915Z,9.85
2023-04-16T19:31:03.888Z,9.81
2023-04-16T19:33:30.416Z,9.76
2023-04-16T19:35:56.812Z,9.73
2023-04-16T19:38:23.259Z,9.70
2023-04-16T19:40:49.772Z,9.59
2023-04-16T19:43:16.517Z,9.42
2023-04-16T19:45:43.750Z,9.21
2023-04-16T19:48:10.340Z,9.11
2023-04-16T19:50:40.353Z,9.09
2023-04-16T19:53:07.741Z,9.07
2023-04-16T19:55:34.179Z,9.06
2023-04-16T19:58:26.039Z,9.05
2023-04-16T20:00:52.665Z,9.03
2023-04-16T20:03:19.167Z,8.97
2023-04-16T20:05:47.127Z,8.92
2023-04-16T20:08:13.728Z,8.88
2023-04-16T20:10:40.325Z,8.85
2023-04-16T20:13:10.963Z,8.83
2023-04-16T20:15:37.834Z,8.82
2023-04-16T20:18:05.693Z,8.84
2023-04-16T20:20:34.176Z,8.85
2023-04-16T20:23:20.485Z,8.86
2023-04-16T20:25:50.524Z,8.85
2023-04-16T20:28:17.032Z,8.82
2023-04-16T20:30:43.381Z,8.80
2023-04-16T20:33:09.942Z,8.77
2023-04-16T20:35:36.655Z,8.76
2023-04-16T20:38:25.027Z,8.74
2023-04-16T20:40:51.933Z,8.73
2023-04-16T20:43:18.524Z,8.71
2023-04-16T20:45:45.173Z,8.70
2023-04-16T20:48:11.637Z,8.69
2023-04-16T20:50:38.114Z,8.66
2023-04-16T20:53:04.616Z,8.63
2023-04-16T20:55:31.060Z,8.61
2023-04-16T20:57:57.432Z,8.60
2023-04-16T21:00:23.890Z,8.60
2023-04-16T21:02:50.349Z,8.59
2023-04-16T21:05:16.769Z,8.58
2023-04-16T21:07:43.307Z,8.56
2023-04-16T21:10:09.903Z,8.53
2023-04-16T21:12:36.271Z,8.51
2023-04-16T21:15:03.537Z,8.47
2023-04-16T21:17:30.093Z,8.42
2023-04-16T21:19:56.512Z,8.38
2023-04-16T21:22:22.888Z,8.35
2023-04-16T21:24:49.302Z,8.32
2023-04-16T21:27:15.518Z,8.32
2023-04-16T21:29:41.801Z,8.31
2023-04-16T21:32:08.230Z,8.29
2023-04-16T21:34:34.514Z,8.27
2023-04-16T21:37:00.819Z,8.25
2023-04-16T21:39:27.143Z,8.22
2023-04-16T21:41:53.371Z,8.20
2023-04-16T21:44:19.715Z,8.17
2023-04-16T21:46:46.270Z,8.14
2023-04-16T21:49:12.891Z,8.12
2023-04-16T21:51:40.580Z,8.10
2023-04-16T21:54:07.149Z,8.08
2023-04-16T21:56:33.399Z,8.04
2023-04-16T21:58:59.674Z,8.00
2023-04-16T22:01:26.041Z,7.96
2023-04-16T22:03:52.598Z,7.93
2023-04-16T22:06:19.115Z,7.90
2023-04-16T22:08:45.598Z,7.87
2023-04-16T22:11:11.880Z,7.85
2023-04-16T22:13:38.178Z,7.82
2023-04-16T22:16:04.793Z,7.79
2023-04-16T22:18:31.184Z,7.78
2023-04-16T22:20:57.659Z,7.74
2023-04-16T22:23:24.609Z,7.71
2023-04-16T22:25:52.850Z,7.69
2023-04-16T22:28:19.093Z,7.69
2023-04-16T22:30:45.452Z,7.68
2023-04-16T22:33:11.858Z,7.67
2023-04-16T22:35:38.348Z,7.66
2023-04-16T22:38:04.794Z,7.66
2023-04-16T22:40:31.063Z,7.64
2023-04-16T22:42:57.321Z,7.60
2023-04-16T22:45:23.642Z,7.56
2023-04-16T22:47:49.905Z,7.54
2023-04-16T22:50:16.491Z,7.51
2023-04-16T22:52:42.740Z,7.48
2023-04-16T22:55:09.000Z,7.44
2023-04-16T22:57:35.310Z,7.41
2023-04-16T23:00:01.810Z,7.38
2023-04-16T23:02:28.190Z,7.37
2023-04-16T23:04:54.596Z,7.36
2023-04-16T23:07:21.015Z,7.35
2023-04-16T23:09:47.254Z,7.33
2023-04-16T23:12:13.521Z,7.31
2023-04-16T23:14:39.811Z,7.29
2023-04-16T23:17:06.041Z,7.26
2023-04-16T23:19:32.347Z,7.24
2023-04-16T23:21:58.660Z,7.23
2023-04-16T23:24:25.051Z,7.22
2023-04-16T23:26:51.530Z,7.18
2023-04-16T23:29:17.971Z,7.16
2023-04-16T23:31:44.240Z,7.14
2023-04-16T23:34:10.593Z,7.13
2023-04-16T23:36:36.925Z,7.11
2023-04-16T23:39:03.252Z,7.11
2023-04-16T23:41:29.587Z,7.10
2023-04-16T23:43:55.972Z,7.08
2023-04-16T23:46:22.321Z,7.06
2023-04-16T23:48:48.760Z,7.03
2023-04-16T23:51:15.024Z,7.01
2023-04-16T23:53:41.435Z,6.99
2023-04-16T23:56:07.807Z,6.98
2023-04-16T23:58:34.051Z,6.96
